sensor_id;sensor_type;location;lat;lon;timestamp;pressure;altitude;pressure_sealevel;temperature;humidity
74702;BME280;63227;50.978;5.940;2022-09-09T07:00:04;100173.0;;;20.5;65.6
74702;BME280;63227;50.978;5.940;2022-09-09T07:05:18;100173.0;;;20.4;66.0
74702;BME280;63227;50.978;5.940;2022-09-09T07:10:33;100172.0;;;20.3;66.3
74702;BME280;63227;50.978;5.940;2022-09-09T07:15:48;100170.0;;;20.5;65.6
74702;BME280;63227;50.978;5.940;2022-09-09T07:21:03;100168.0;;;20.6;64.8
74702;BME280;63227;50.978;5.940;2022-09-09T07:26:20;100165.0;;;20.8;63.6
74702;BME280;63227;50.978;5.940;2022-09-09T07:31:35;100163.0;;;21.0;62.6
74702;BME280;63227;50.978;5.940;2022-09-09T07:36:48;100162.0;;;21.3;61.4
74702;BME280;63227;50.978;5.940;2022-09-09T07:42:04;100162.0;;;21.5;60.4
74702;BME280;63227;50.978;5.940;2022-09-09T07:47:18;100162.0;;;21.8;59.8
74702;BME280;63227;50.978;5.940;2022-09-09T07:52:33;100163.0;;;22.0;59.4
74702;BME280;63227;50.978;5.940;2022-09-09T07:57:48;100162.0;;;22.1;59.3
74702;BME280;63227;50.978;5.940;2022-09-09T08:03:03;100164.0;;;22.3;59.1
74702;BME280;63227;50.978;5.940;2022-09-09T08:08:19;100166.0;;;22.4;59.9
74702;BME280;63227;50.978;5.940;2022-09-09T08:13:34;100167.0;;;22.3;59.9
74702;BME280;63227;50.978;5.940;2022-09-09T08:14:41;100176.0;;;21.6;60.7
74702;BME280;63227;50.978;5.940;2022-09-09T08:19:56;100177.0;;;21.6;61.1
74702;BME280;63227;50.978;5.940;2022-09-09T08:25:11;100180.0;;;21.6;61.0
74702;BME280;63227;50.978;5.940;2022-09-09T08:30:26;100185.0;;;21.7;60.0
74702;BME280;63227;50.978;5.940;2022-09-09T08:35:49;100189.0;;;22.0;57.4
74702;BME280;63227;50.978;5.940;2022-09-09T08:41:04;100191.0;;;22.7;53.2
74702;BME280;63227;50.978;5.940;2022-09-09T08:46:18;100192.0;;;23.4;51.0
74702;BME280;63227;50.978;5.940;2022-09-09T08:51:29;100192.0;;;24.2;49.1
74702;BME280;63227;50.978;5.940;2022-09-09T08:56:42;100193.0;;;24.7;49.6
74702;BME280;63227;50.978;5.940;2022-09-09T09:02:04;100193.0;;;25.0;51.7
74702;BME280;63227;50.978;5.940;2022-09-09T09:07:23;100193.0;;;25.3;50.1
74702;BME280;63227;50.978;5.940;2022-09-09T09:12:30;100194.0;;;25.3;52.5
74702;BME280;63227;50.978;5.940;2022-09-09T09:17:42;100195.0;;;25.2;54.0
74702;BME280;63227;50.978;5.940;2022-09-09T09:23:00;100198.0;;;25.0;54.8
74702;BME280;63227;50.978;5.940;2022-09-09T09:28:15;100200;;;24.9;53.8
74702;BME280;63227;50.978;5.940;2022-09-09T09:33:32;100202.0;;;24.9;54.3
74702;BME280;63227;50.978;5.940;2022-09-09T09:38:53;100204.0;;;24.8;54.4
74702;BME280;63227;50.978;5.940;2022-09-09T09:43:59;100205.0;;;24.8;54.4
74702;BME280;63227;50.978;5.940;2022-09-09T09:49:14;100208.0;;;24.8;54.5
74702;BME280;63227;50.978;5.940;2022-09-09T09:54:31;100210.0;;;24.8;54.3
74702;BME280;63227;50.978;5.940;2022-09-09T09:59:45;100211.0;;;24.7;54.6
74702;BME280;63227;50.978;5.940;2022-09-09T10:05:01;100213.0;;;24.6;54.5
74702;BME280;63227;50.978;5.940;2022-09-09T10:10:20;100218.0;;;24.6;55.0
74702;BME280;63227;50.978;5.940;2022-09-09T10:15:36;100220.0;;;24.5;54.9
74702;BME280;63227;50.978;5.940;2022-09-09T10:20:51;100221.0;;;24.8;52.2
74702;BME280;63227;50.978;5.940;2022-09-09T10:26:12;100220.0;;;25.2;50.2
74702;BME280;63227;50.978;5.940;2022-09-09T10:31:19;100221.0;;;25.7;48.6
74702;BME280;63227;50.978;5.940;2022-09-09T10:36:30;100220.0;;;26.5;45.5
74702;BME280;63227;50.978;5.940;2022-09-09T11:02:47;100215.0;;;27.8;51.4
74702;BME280;63227;50.978;5.940;2022-09-09T11:08:03;100215.0;;;27.2;52.5
74702;BME280;63227;50.978;5.940;2022-09-09T11:13:19;100217.0;;;26.7;53.5
74702;BME280;63227;50.978;5.940;2022-09-09T11:18:31;100218.0;;;26.4;53.2
74702;BME280;63227;50.978;5.940;2022-09-09T11:23:49;100217.0;;;26.0;54.0
74702;BME280;63227;50.978;5.940;2022-09-09T11:29:16;100218.0;;;25.8;54.8
74702;BME280;63227;50.978;5.940;2022-09-09T11:34:24;100220.0;;;25.6;55.2
74702;BME280;63227;50.978;5.940;2022-09-09T11:39:50;100221.0;;;25.5;55.4
74702;BME280;63227;50.978;5.940;2022-09-09T11:44:46;100223.0;;;25.3;56.4
74702;BME280;63227;50.978;5.940;2022-09-09T11:50:10;100228.0;;;25.2;56.9
74702;BME280;63227;50.978;5.940;2022-09-09T11:55:25;100229.0;;;25.1;57.0
74702;BME280;63227;50.978;5.940;2022-09-09T12:00:38;100230.0;;;25;57.0
74702;BME280;63227;50.978;5.940;2022-09-09T12:05:46;100229.0;;;24.9;57.2
74702;BME280;63227;50.978;5.940;2022-09-09T12:11:02;100228.0;;;25.0;56.1
74702;BME280;63227;50.978;5.940;2022-09-09T12:16:29;100228.0;;;25.2;54.4
74702;BME280;63227;50.978;5.940;2022-09-09T12:21:36;100226.0;;;25.4;54.5
74702;BME280;63227;50.978;5.940;2022-09-09T12:26:52;100226.0;;;25.4;54.7
74702;BME280;63227;50.978;5.940;2022-09-09T12:32:06;100226.0;;;25.4;55.5
74702;BME280;63227;50.978;5.940;2022-09-09T12:37:28;100223.0;;;25.3;55.9
74702;BME280;63227;50.978;5.940;2022-09-09T12:42:32;100219.0;;;25.3;55.3
74702;BME280;63227;50.978;5.940;2022-09-09T12:47:50;100216.0;;;25.2;56.3
74702;BME280;63227;50.978;5.940;2022-09-09T12:53:07;100214.0;;;25.2;56.3
74702;BME280;63227;50.978;5.940;2022-09-09T12:58:18;100212.0;;;25.2;55.9
74702;BME280;63227;50.978;5.940;2022-09-09T13:03:16;100192.0;;;25.0;56.3
74702;BME280;63227;50.978;5.940;2022-09-09T13:08:28;100191.0;;;25.0;56.4
74702;BME280;63227;50.978;5.940;2022-09-09T13:13:50;100193.0;;;25.0;56.2
74702;BME280;63227;50.978;5.940;2022-09-09T13:18:59;100199.0;;;25.0;57.5
74702;BME280;63227;50.978;5.940;2022-09-09T13:24:31;100201.0;;;24.9;57.7
74702;BME280;63227;50.978;5.940;2022-09-09T13:29:30;100204.0;;;24.8;57.3
74702;BME280;63227;50.978;5.940;2022-09-09T13:34:50;100208.0;;;24.8;57.5
74702;BME280;63227;50.978;5.940;2022-09-09T13:39:59;100210.0;;;24.7;57.9
74702;BME280;63227;50.978;5.940;2022-09-09T13:45:15;100205.0;;;24.6;58.0
74702;BME280;63227;50.978;5.940;2022-09-09T13:50:30;100199.0;;;24.6;57.9
74702;BME280;63227;50.978;5.940;2022-09-09T13:55:44;100192.0;;;24.5;57.7
74702;BME280;63227;50.978;5.940;2022-09-09T14:00:59;100186.0;;;24.6;57.3
74702;BME280;63227;50.978;5.940;2022-09-09T14:06:15;100182.0;;;24.6;56.6
74702;BME280;63227;50.978;5.940;2022-09-09T14:11:32;100179.0;;;24.7;56.3
74702;BME280;63227;50.978;5.940;2022-09-09T14:16:47;100176.0;;;24.8;56.1
74702;BME280;63227;50.978;5.940;2022-09-09T14:22:02;100173.0;;;24.8;56.5
74702;BME280;63227;50.978;5.940;2022-09-09T14:27:17;100171.0;;;24.8;56.8
74702;BME280;63227;50.978;5.940;2022-09-09T14:32:32;100170.0;;;24.8;56.6
74702;BME280;63227;50.978;5.940;2022-09-09T14:37:47;100171.0;;;24.8;56.8
74702;BME280;63227;50.978;5.940;2022-09-09T14:43:02;100170.0;;;24.8;56.9
74702;BME280;63227;50.978;5.940;2022-09-09T14:48:17;100169.0;;;24.8;56.7
74702;BME280;63227;50.978;5.940;2022-09-09T14:53:32;100169.0;;;24.8;56.7
74702;BME280;63227;50.978;5.940;2022-09-09T14:58:48;100167.0;;;24.7;56.8
74702;BME280;63227;50.978;5.940;2022-09-09T15:04:04;100165.0;;;24.7;57.0
74702;BME280;63227;50.978;5.940;2022-09-09T15:09:18;100164.0;;;24.7;56.9
74702;BME280;63227;50.978;5.940;2022-09-09T15:14:33;100159.0;;;24.7;57.0
74702;BME280;63227;50.978;5.940;2022-09-09T15:19:48;100154.0;;;24.7;57.3
74702;BME280;63227;50.978;5.940;2022-09-09T15:25:04;100158.0;;;24.7;56.9
74702;BME280;63227;50.978;5.940;2022-09-09T15:30:18;100160.0;;;24.6;57.7
74702;BME280;63227;50.978;5.940;2022-09-09T15:35:33;100161.0;;;24.6;57.7
74702;BME280;63227;50.978;5.940;2022-09-09T15:40:53;100164.0;;;24.6;57.4
74702;BME280;63227;50.978;5.940;2022-09-09T15:46:22;100164.0;;;24.6;57.2
74702;BME280;63227;50.978;5.940;2022-09-09T15:51:18;100165.0;;;24.6;57.4
74702;BME280;63227;50.978;5.940;2022-09-09T15:56:34;100166.0;;;24.6;57.6
74702;BME280;63227;50.978;5.940;2022-09-09T16:01:49;100167.0;;;24.6;57.8
74702;BME280;63227;50.978;5.940;2022-09-09T16:07:04;100169.0;;;24.6;57.9
74702;BME280;63227;50.978;5.940;2022-09-09T16:12:17;100171.0;;;24.5;58.1
74702;BME280;63227;50.978;5.940;2022-09-09T16:17:32;100173.0;;;24.5;58.1
74702;BME280;63227;50.978;5.940;2022-09-09T16:22:47;100174.0;;;24.5;58.3
74702;BME280;63227;50.978;5.940;2022-09-09T16:28:02;100176.0;;;24.4;58.3
74702;BME280;63227;50.978;5.940;2022-09-09T16:33:18;100176.0;;;24.4;58.6
74702;BME280;63227;50.978;5.940;2022-09-09T16:38:33;100178.0;;;24.3;58.9
74702;BME280;63227;50.978;5.940;2022-09-09T16:43:52;100179.0;;;24.2;59.2
74702;BME280;63227;50.978;5.940;2022-09-09T16:49:05;100182.0;;;24.2;59.1
74702;BME280;63227;50.978;5.940;2022-09-09T16:54:18;100185.0;;;24.1;59.7
74702;BME280;63227;50.978;5.940;2022-09-09T16:59:33;100190.0;;;24.0;60
74702;BME280;63227;50.978;5.940;2022-09-09T17:04:48;100197.0;;;23.9;60.2
74702;BME280;63227;50.978;5.940;2022-09-09T17:10:05;100204.0;;;23.8;60.5
74702;BME280;63227;50.978;5.940;2022-09-09T17:15:18;100208.0;;;23.7;60.6
74702;BME280;63227;50.978;5.940;2022-09-09T17:20:35;100213.0;;;23.7;60.6
74702;BME280;63227;50.978;5.940;2022-09-09T17:25:55;100219.0;;;23.6;61.0
74702;BME280;63227;50.978;5.940;2022-09-09T17:31:04;100225.0;;;23.5;61.2
74702;BME280;63227;50.978;5.940;2022-09-09T17:36:21;100232.0;;;23.5;61.4
74702;BME280;63227;50.978;5.940;2022-09-09T17:41:35;100239.0;;;23.4;61.4
74702;BME280;63227;50.978;5.940;2022-09-09T17:46:49;100245.0;;;23.3;61.5
74702;BME280;63227;50.978;5.940;2022-09-09T17:52:04;100248.0;;;23.3;62.2
74702;BME280;63227;50.978;5.940;2022-09-09T17:57:19;100251.0;;;23.2;62.1
74702;BME280;63227;50.978;5.940;2022-09-09T18:02:34;100254.0;;;23.2;62.7
74702;BME280;63227;50.978;5.940;2022-09-09T18:07:49;100258.0;;;23.1;62.7
74702;BME280;63227;50.978;5.940;2022-09-09T18:13:04;100259.0;;;23.0;62.7
74702;BME280;63227;50.978;5.940;2022-09-09T18:18:20;100262.0;;;23.0;62.8
74702;BME280;63227;50.978;5.940;2022-09-09T18:23:36;100263.0;;;22.9;62.7
74702;BME280;63227;50.978;5.940;2022-09-09T18:28:52;100266.0;;;22.9;62.8
74702;BME280;63227;50.978;5.940;2022-09-09T18:34:07;100271.0;;;22.9;62.8
74702;BME280;63227;50.978;5.940;2022-09-09T18:39:21;100277.0;;;22.9;62.6
74702;BME280;63227;50.978;5.940;2022-09-09T18:44:35;100284.0;;;22.8;62.5
74702;BME280;63227;50.978;5.940;2022-09-09T18:49:50;100289.0;;;22.9;62.2
74702;BME280;63227;50.978;5.940;2022-09-09T18:55:07;100294.0;;;22.9;61.9
74702;BME280;63227;50.978;5.940;2022-09-09T19:00:20;100300;;;22.9;61.9
74702;BME280;63227;50.978;5.940;2022-09-09T19:05:35;100306.0;;;22.9;62.1
74702;BME280;63227;50.978;5.940;2022-09-09T19:10:51;100312.0;;;22.9;62.1
74702;BME280;63227;50.978;5.940;2022-09-09T19:16:08;100318.0;;;22.9;62.0
74702;BME280;63227;50.978;5.940;2022-09-09T19:21:23;100322.0;;;22.9;62.1
74702;BME280;63227;50.978;5.940;2022-09-09T19:26:39;100327.0;;;22.9;62.0
74702;BME280;63227;50.978;5.940;2022-09-09T19:31:53;100331.0;;;22.9;62.0
74702;BME280;63227;50.978;5.940;2022-09-09T19:37:06;100334.0;;;22.9;62.1
74702;BME280;63227;50.978;5.940;2022-09-09T19:42:21;100338.0;;;22.9;62.0
74702;BME280;63227;50.978;5.940;2022-09-09T19:47:36;100343.0;;;23.0;61.4
74702;BME280;63227;50.978;5.940;2022-09-09T19:52:51;100348.0;;;23.0;61.2
74702;BME280;63227;50.978;5.940;2022-09-09T19:58:06;100351.0;;;23.1;61.1
74702;BME280;63227;50.978;5.940;2022-09-09T20:03:21;100356.0;;;23.2;61.1
74702;BME280;63227;50.978;5.940;2022-09-09T20:08:37;100360.0;;;23.2;61.5
74702;BME280;63227;50.978;5.940;2022-09-09T20:13:52;100363.0;;;23.2;61.5
74702;BME280;63227;50.978;5.940;2022-09-09T20:19:10;100366.0;;;23.2;61.5
74702;BME280;63227;50.978;5.940;2022-09-09T20:24:22;100371.0;;;23.1;61.6
74702;BME280;63227;50.978;5.940;2022-09-09T20:29:37;100374.0;;;23.1;61.8
74702;BME280;63227;50.978;5.940;2022-09-09T20:34:52;100377.0;;;23.1;62.0
74702;BME280;63227;50.978;5.940;2022-09-09T20:40:07;100381.0;;;23.0;61.9
74702;BME280;63227;50.978;5.940;2022-09-09T20:45:22;100382.0;;;23.0;61.8
74702;BME280;63227;50.978;5.940;2022-09-09T20:50:37;100383.0;;;23.0;61.9
74702;BME280;63227;50.978;5.940;2022-09-09T20:55:57;100382.0;;;23.0;61.5
74702;BME280;63227;50.978;5.940;2022-09-09T21:01:14;100382.0;;;23.0;61.7
74702;BME280;63227;50.978;5.940;2022-09-09T21:06:23;100381.0;;;22.7;64.0
74702;BME280;63227;50.978;5.940;2022-09-09T21:11:38;100383.0;;;22.4;65.0
74702;BME280;63227;50.978;5.940;2022-09-09T21:16:53;100383.0;;;22.2;65.3
74702;BME280;63227;50.978;5.940;2022-09-09T21:22:08;100384.0;;;22;65.7
74702;BME280;63227;50.978;5.940;2022-09-09T21:27:23;100384.0;;;22;64.7
74702;BME280;63227;50.978;5.940;2022-09-09T21:32:38;100386.0;;;22.0;64.8
74702;BME280;63227;50.978;5.940;2022-09-09T21:37:53;100385.0;;;21.9;65.4
74702;BME280;63227;50.978;5.940;2022-09-09T21:43:08;100384.0;;;21.7;67.0
74702;BME280;63227;50.978;5.940;2022-09-09T21:48:23;100384.0;;;21.6;66.6
74702;BME280;63227;50.978;5.940;2022-09-09T21:53:38;100385.0;;;21.5;65.4
74702;BME280;63227;50.978;5.940;2022-09-09T22:04:08;100387.0;;;21.7;63.0
74702;BME280;63227;50.978;5.940;2022-09-09T22:09:23;100386.0;;;21.8;61.9
74702;BME280;63227;50.978;5.940;2022-09-09T22:14:38;100384.0;;;21.6;62.9
74702;BME280;63227;50.978;5.940;2022-09-09T22:19:53;100382.0;;;21.5;64.2
74702;BME280;63227;50.978;5.940;2022-09-09T22:25:08;100380.0;;;21.2;66.2
74702;BME280;63227;50.978;5.940;2022-09-09T22:30:23;100380.0;;;21.0;65.9
74702;BME280;63227;50.978;5.940;2022-09-09T22:35:39;100379.0;;;20.8;66.8
74702;BME280;63227;50.978;5.940;2022-09-09T22:40:54;100381.0;;;20.6;66.0
74702;BME280;63227;50.978;5.940;2022-09-09T22:46:09;100384.0;;;20.4;67.3
74702;BME280;63227;50.978;5.940;2022-09-09T22:51:24;100387.0;;;20.2;67.7
74702;BME280;63227;50.978;5.940;2022-09-09T22:56:39;100389.0;;;20.2;67.2
74702;BME280;63227;50.978;5.940;2022-09-09T23:01:54;100390.0;;;20.0;68.4
74702;BME280;63227;50.978;5.940;2022-09-09T23:07:09;100392.0;;;19.9;68.5
74702;BME280;63227;50.978;5.940;2022-09-09T23:12:24;100391.0;;;19.8;69.1
74702;BME280;63227;50.978;5.940;2022-09-09T23:17:39;100392.0;;;19.8;68.9
74702;BME280;63227;50.978;5.940;2022-09-09T23:22:54;100393.0;;;19.7;68.9
74702;BME280;63227;50.978;5.940;2022-09-09T23:28:09;100395.0;;;19.7;68.7
74702;BME280;63227;50.978;5.940;2022-09-09T23:33:24;100396.0;;;19.7;69.2
74702;BME280;63227;50.978;5.940;2022-09-09T23:38:40;100397.0;;;19.6;69.6
74702;BME280;63227;50.978;5.940;2022-09-09T23:43:54;100397.0;;;19.7;68.9
74702;BME280;63227;50.978;5.940;2022-09-09T23:49:09;100397.0;;;19.7;69.0
74702;BME280;63227;50.978;5.940;2022-09-09T23:54:25;100399.0;;;19.7;68.6
74702;BME280;63227;50.978;5.940;2022-09-09T23:59:39;100400;;;19.7;69.4
